createdAt,value
2022-10-15T00:00:11.351Z,9.37
2022-10-15T00:03:13.041Z,9.40
2022-10-15T00:06:17.263Z,9.23
2022-10-15T00:09:18.917Z,8.87
2022-10-15T00:12:20.561Z,8.93
2022-10-15T00:15:22.115Z,8.53
2022-10-15T00:18:23.824Z,8.70
2022-10-15T00:21:25.695Z,8.13
2022-10-15T00:24:27.288Z,8.63
2022-10-15T00:27:28.823Z,9.43
2022-10-15T00:30:30.399Z,9.13
2022-10-15T00:33:32.071Z,8.87
2022-10-15T00:36:35.347Z,9.60
2022-10-15T00:39:36.891Z,9.60
2022-10-15T00:42:38.858Z,11.03
2022-10-15T00:45:40.439Z,11.13
2022-10-15T00:48:42.062Z,11.93
2022-10-15T00:51:46.907Z,12.40
2022-10-15T00:54:52.168Z,13.40
2022-10-15T00:57:54.043Z,12.80
2022-10-15T01:00:55.860Z,11.93
2022-10-15T01:03:57.848Z,11.87
2022-10-15T01:06:59.564Z,11.50
2022-10-15T01:10:01.483Z,11.83
2022-10-15T01:13:03.077Z,11.07
2022-10-15T01:16:30.932Z,11.13
2022-10-15T01:19:44.423Z,11.27
2022-10-15T01:22:56.481Z,9.40
2022-10-15T01:26:16.530Z,9.27
2022-10-15T01:29:24.121Z,8.73
2022-10-15T01:32:27.199Z,8.90
2022-10-15T01:35:44.640Z,9.77
2022-10-15T01:38:55.555Z,9.20
2022-10-15T01:42:01.600Z,10.17
2022-10-15T01:45:08.705Z,9.73
2022-10-15T01:48:40.203Z,9.63
2022-10-15T01:51:43.104Z,9.70
2022-10-15T01:54:46.541Z,10.47
2022-10-15T01:57:49.805Z,9.87
2022-10-15T02:00:53.556Z,10.30
2022-10-15T02:03:55.324Z,10.70
2022-10-15T02:07:10.962Z,9.83
2022-10-15T02:10:22.118Z,10.30
2022-10-15T02:13:51.118Z,10.20
2022-10-15T02:17:04.759Z,9.43
2022-10-15T02:20:15.563Z,10.57
2022-10-15T02:23:18.978Z,9.23
2022-10-15T02:26:21.341Z,10.50
2022-10-15T02:29:24.265Z,10.27
2022-10-15T02:32:27.613Z,8.97
2022-10-15T02:35:30.406Z,10.03
2022-10-15T02:38:32.878Z,8.93
2022-10-15T02:41:38.599Z,9.23
2022-10-15T02:44:40.405Z,8.50
2022-10-15T02:47:42.224Z,8.87
2022-10-15T02:50:44.015Z,7.87
2022-10-15T02:53:48.618Z,8.53
2022-10-15T02:56:50.279Z,8.50
2022-10-15T02:59:54.474Z,11.20
2022-10-15T03:02:56.350Z,13.70
2022-10-15T03:05:58.466Z,13.17
2022-10-15T03:09:00.147Z,10.50
2022-10-15T03:12:02.087Z,10.07
2022-10-15T03:15:05.182Z,10.43
2022-10-15T03:18:07.544Z,10.73
2022-10-15T03:21:10.111Z,11.50
2022-10-15T03:24:12.617Z,12.43
2022-10-15T03:27:14.368Z,15.17
2022-10-15T03:30:16.537Z,15.07
2022-10-15T03:33:20.825Z,18.83
2022-10-15T03:36:24.921Z,9.27
2022-10-15T03:39:26.806Z,8.37
2022-10-15T03:42:31.922Z,9.33
2022-10-15T03:45:35.188Z,10.83
2022-10-15T03:48:50.659Z,10.70
2022-10-15T03:51:54.024Z,9.70
2022-10-15T03:54:58.394Z,10.37
2022-10-15T03:58:00.184Z,10.60
2022-10-15T04:01:02.111Z,15.13
2022-10-15T04:04:03.841Z,12.87
2022-10-15T04:07:05.425Z,11.53
2022-10-15T04:10:08.752Z,11.17
2022-10-15T04:13:13.654Z,11.07
2022-10-15T04:16:17.600Z,10.47
2022-10-15T04:19:19.468Z,10.53
2022-10-15T04:22:31.214Z,10.83
2022-10-15T04:25:38.985Z,10.67
2022-10-15T04:28:40.707Z,11.47
2022-10-15T04:31:42.625Z,11.80
2022-10-15T04:34:46.445Z,13.43
2022-10-15T04:37:49.391Z,11.30
2022-10-15T04:40:57.949Z,10.93
2022-10-15T04:44:03.046Z,11.80
2022-10-15T04:47:06.882Z,11.37
2022-10-15T04:50:22.267Z,12.83
2022-10-15T04:54:01.867Z,10.20
2022-10-15T04:57:05.994Z,9.73
2022-10-15T05:00:08.435Z,11.93
2022-10-15T05:03:42.491Z,10.50
2022-10-15T05:06:55.336Z,10.80
2022-10-15T05:09:57.725Z,12.03
2022-10-15T05:13:01.636Z,10.33
2022-10-15T05:16:13.294Z,10.87
2022-10-15T05:19:16.957Z,11.27
2022-10-15T05:22:19.446Z,11.43
2022-10-15T05:25:26.423Z,12.60
2022-10-15T05:28:29.759Z,12.50
2022-10-15T05:31:32.757Z,10.80
2022-10-15T05:34:49.082Z,11.43
2022-10-15T05:37:51.492Z,11.57
2022-10-15T05:40:53.129Z,11.93
2022-10-15T05:43:58.991Z,11.70
2022-10-15T05:47:03.565Z,10.03
2022-10-15T05:50:09.520Z,11.67
2022-10-15T05:53:17.439Z,10.50
2022-10-15T05:56:22.107Z,10.53
2022-10-15T05:59:23.653Z,10.60
2022-10-15T06:02:25.870Z,17.20
2022-10-15T06:05:28.375Z,15.93
2022-10-15T06:08:30.637Z,15.17
2022-10-15T06:11:32.180Z,13.80
2022-10-15T06:14:33.825Z,15.73
2022-10-15T06:17:37.251Z,10.47
2022-10-15T06:20:40.266Z,14.70
2022-10-15T06:23:44.508Z,15.53
2022-10-15T06:26:46.200Z,12.83
2022-10-15T06:29:47.987Z,16.53
2022-10-15T06:32:53.365Z,14.10
2022-10-15T06:35:55.400Z,12.10
2022-10-15T06:38:57.036Z,12.10
2022-10-15T06:41:58.684Z,8.93
2022-10-15T06:45:14.885Z,7.20
2022-10-15T06:48:18.887Z,8.40
2022-10-15T06:51:20.528Z,8.43
2022-10-15T06:54:25.331Z,7.60
2022-10-15T06:57:30.014Z,8.03
2022-10-15T07:00:31.704Z,8.20
2022-10-15T07:03:34.511Z,9.17
2022-10-15T07:06:36.781Z,7.23
2022-10-15T07:09:38.552Z,6.20
2022-10-15T07:12:40.165Z,6.70
2022-10-15T07:15:42.016Z,4.60
2022-10-15T07:18:43.564Z,4.90
2022-10-15T07:21:45.126Z,5.43
2022-10-15T07:24:48.650Z,6.17
2022-10-15T07:27:50.267Z,7.10
2022-10-15T07:30:52.024Z,7.60
2022-10-15T07:33:53.656Z,6.43
2022-10-15T07:36:55.204Z,5.13
2022-10-15T07:39:57.271Z,4.20
2022-10-15T07:42:59.331Z,4.10
2022-10-15T07:46:06.209Z,4.80
2022-10-15T07:49:09.321Z,5.33
2022-10-15T07:52:11.081Z,4.10
2022-10-15T07:55:12.956Z,4.23
2022-10-15T07:58:14.548Z,3.70
2022-10-15T08:01:16.105Z,3.70
2022-10-15T08:04:17.916Z,3.80
2022-10-15T08:07:23.924Z,3.60
2022-10-15T08:10:25.556Z,4.70
2022-10-15T08:13:27.138Z,5.20
2022-10-15T08:16:29.604Z,5.17
2022-10-15T08:19:34.055Z,7.50
2022-10-15T08:22:35.665Z,4.87
2022-10-15T08:25:37.254Z,4.30
2022-10-15T08:28:39.210Z,3.87
2022-10-15T08:31:41.084Z,3.77
2022-10-15T08:34:42.650Z,5.40
2022-10-15T08:37:44.217Z,4.93
2022-10-15T08:40:56.253Z,5.60
2022-10-15T08:43:58.112Z,4.80
2022-10-15T08:47:04.543Z,4.97
2022-10-15T08:50:17.817Z,4.30
2022-10-15T08:53:21.254Z,5.17
2022-10-15T08:56:26.958Z,4.97
2022-10-15T08:59:36.811Z,5.60
2022-10-15T09:02:42.727Z,5.53
2022-10-15T09:05:44.485Z,5.43
2022-10-15T09:08:52.969Z,4.83
2022-10-15T09:12:06.858Z,5.70
2022-10-15T09:15:12.867Z,5.47
2022-10-15T09:18:18.882Z,5.53
2022-10-15T09:21:22.186Z,5.73
2022-10-15T09:24:25.005Z,6.00
2022-10-15T09:27:38.325Z,5.97
2022-10-15T09:30:39.976Z,6.23
2022-10-15T09:33:46.529Z,7.40
2022-10-15T09:36:48.176Z,5.67
2022-10-15T09:39:52.784Z,6.73
2022-10-15T09:42:55.090Z,5.97
2022-10-15T09:45:57.105Z,6.90
2022-10-15T09:49:09.615Z,7.40
2022-10-15T09:52:29.758Z,7.83
2022-10-15T09:55:42.412Z,7.67
2022-10-15T09:58:47.121Z,8.13
2022-10-15T10:01:57.882Z,7.57
2022-10-15T10:05:17.608Z,7.07
2022-10-15T10:08:21.908Z,7.77
2022-10-15T10:11:24.210Z,7.43
2022-10-15T10:14:49.307Z,8.47
2022-10-15T10:17:57.227Z,8.17
2022-10-15T10:21:00.181Z,9.13
2022-10-15T10:24:21.122Z,9.93
2022-10-15T10:27:24.702Z,8.07
2022-10-15T10:30:26.715Z,8.03
2022-10-15T10:33:32.092Z,8.73
2022-10-15T10:36:35.319Z,7.20
2022-10-15T10:39:38.968Z,9.10
2022-10-15T10:42:40.544Z,8.00
2022-10-15T10:45:53.073Z,9.67
2022-10-15T10:48:54.672Z,9.37
2022-10-15T10:51:56.308Z,10.33
2022-10-15T10:54:59.659Z,7.97
2022-10-15T10:58:01.607Z,7.83
2022-10-15T11:01:03.366Z,8.03
2022-10-15T11:04:08.689Z,8.67
2022-10-15T11:07:19.671Z,9.03
2022-10-15T11:10:26.533Z,8.67
2022-10-15T11:13:46.604Z,8.57
2022-10-15T11:16:51.450Z,8.00
2022-10-15T11:23:27.520Z,8.37
2022-10-15T11:26:34.101Z,9.57
2022-10-15T11:29:55.516Z,8.70
2022-10-15T11:33:08.987Z,8.87
2022-10-15T11:36:23.171Z,8.27
2022-10-15T11:39:45.618Z,8.27
2022-10-15T11:42:52.545Z,8.27
2022-10-15T11:46:03.136Z,8.83
2022-10-15T11:49:25.334Z,8.97
2022-10-15T11:52:37.751Z,7.23
2022-10-15T11:55:44.076Z,10.60
2022-10-15T11:58:45.716Z,8.90
2022-10-15T12:01:53.063Z,10.70
2022-10-15T12:05:20.938Z,9.17
2022-10-15T12:08:23.885Z,8.20
2022-10-15T12:11:31.245Z,7.57
2022-10-15T12:14:46.350Z,7.47
2022-10-15T12:17:51.132Z,7.40
2022-10-15T12:20:55.645Z,8.03
2022-10-15T12:23:57.265Z,7.17
2022-10-15T12:27:14.781Z,6.30
2022-10-15T12:30:21.057Z,7.27
2022-10-15T12:33:35.181Z,8.40
2022-10-15T12:36:36.941Z,7.27
2022-10-15T12:39:51.700Z,6.50
2022-10-15T12:43:05.384Z,7.40
2022-10-15T12:46:09.190Z,6.57
2022-10-15T12:49:26.057Z,6.87
2022-10-15T12:52:46.110Z,6.50
2022-10-15T12:56:07.584Z,6.87
2022-10-15T12:59:35.968Z,7.07
2022-10-15T13:05:54.050Z,7.27
2022-10-15T13:09:12.187Z,7.47
2022-10-15T13:12:22.615Z,6.77
2022-10-15T13:15:26.648Z,6.57
2022-10-15T13:18:29.986Z,6.57
2022-10-15T13:21:54.447Z,7.57
2022-10-15T13:24:56.521Z,6.53
2022-10-15T13:27:58.037Z,6.80
2022-10-15T13:31:00.430Z,6.40
2022-10-15T13:34:16.314Z,5.90
2022-10-15T13:37:20.125Z,6.53
2022-10-15T13:40:27.311Z,6.53
2022-10-15T13:43:28.936Z,6.17
2022-10-15T13:46:33.057Z,5.80
2022-10-15T13:49:36.554Z,6.50
2022-10-15T13:52:39.663Z,6.63
2022-10-15T13:55:46.032Z,6.70
2022-10-15T13:58:47.681Z,6.60
2022-10-15T14:01:52.670Z,6.40
2022-10-15T14:04:54.920Z,6.60
2022-10-15T14:07:56.588Z,6.30
2022-10-15T14:10:59.304Z,6.53
2022-10-15T14:14:00.923Z,6.67
2022-10-15T14:17:07.800Z,5.60
2022-10-15T14:20:27.268Z,6.23
2022-10-15T14:23:29.751Z,6.67
2022-10-15T14:26:31.841Z,6.83
2022-10-15T14:29:52.555Z,8.97
2022-10-15T14:32:54.951Z,8.37
2022-10-15T14:36:15.218Z,6.43
2022-10-15T14:39:24.969Z,9.70
2022-10-15T14:42:27.400Z,9.00
2022-10-15T14:45:33.810Z,18.60
2022-10-15T14:48:37.090Z,16.53
2022-10-15T14:51:38.692Z,9.97
2022-10-15T14:54:42.189Z,11.60
2022-10-15T14:57:44.767Z,10.40
2022-10-15T15:00:47.611Z,10.23
2022-10-15T15:03:51.009Z,12.30
2022-10-15T15:06:52.617Z,17.03
2022-10-15T15:09:55.033Z,17.17
2022-10-15T15:12:59.146Z,14.57
2022-10-15T15:16:02.342Z,13.10
2022-10-15T15:19:08.811Z,13.90
2022-10-15T15:22:11.728Z,15.77
2022-10-15T15:25:20.778Z,16.17
2022-10-15T15:28:23.796Z,15.93
2022-10-15T15:31:25.633Z,16.57
2022-10-15T15:34:27.360Z,15.63
2022-10-15T15:37:30.220Z,17.30
2022-10-15T15:40:35.470Z,16.47
2022-10-15T15:43:37.271Z,17.73
2022-10-15T15:46:38.924Z,18.87
2022-10-15T15:49:40.775Z,18.23
2022-10-15T15:52:43.652Z,19.03
2022-10-15T15:55:45.695Z,13.00
2022-10-15T15:58:50.365Z,15.70
2022-10-15T16:05:16.688Z,18.47
2022-10-15T16:08:18.398Z,20.63
2022-10-15T16:11:21.879Z,23.73
2022-10-15T16:14:23.607Z,15.70
2022-10-15T16:17:25.612Z,15.50
2022-10-15T16:20:27.312Z,13.90
2022-10-15T16:23:28.946Z,13.50
2022-10-15T16:26:30.581Z,14.67
2022-10-15T16:29:32.300Z,15.53
2022-10-15T16:32:33.920Z,14.83
2022-10-15T16:35:35.746Z,13.90
2022-10-15T16:38:38.810Z,14.80
2022-10-15T16:41:40.406Z,13.73
2022-10-15T16:44:42.078Z,16.70
2022-10-15T16:47:44.013Z,16.43
2022-10-15T16:50:46.111Z,15.73
2022-10-15T16:53:48.462Z,17.17
2022-10-15T16:56:52.880Z,22.73
2022-10-15T16:59:54.656Z,22.87
2022-10-15T17:02:59.479Z,20.03
2022-10-15T17:06:02.779Z,21.03
2022-10-15T17:09:04.637Z,25.20
2022-10-15T17:12:06.780Z,22.00
2022-10-15T17:15:08.866Z,19.33
2022-10-15T17:18:13.754Z,14.20
2022-10-15T17:21:18.583Z,13.97
2022-10-15T17:24:22.775Z,17.40
2022-10-15T17:27:25.132Z,16.93
2022-10-15T17:30:28.492Z,16.03
2022-10-15T17:33:33.494Z,17.37
2022-10-15T17:36:43.010Z,16.47
2022-10-15T17:39:44.565Z,20.33
2022-10-15T17:42:46.297Z,21.57
2022-10-15T17:45:47.868Z,18.20
2022-10-15T17:48:49.704Z,22.37
2022-10-15T17:51:54.795Z,22.20
2022-10-15T17:55:00.029Z,24.63
2022-10-15T17:58:04.622Z,22.87
2022-10-15T18:01:07.226Z,21.43
2022-10-15T18:04:10.464Z,21.03
2022-10-15T18:07:14.366Z,21.57
2022-10-15T18:10:16.068Z,20.90
2022-10-15T18:13:20.613Z,18.43
2022-10-15T18:16:23.603Z,20.03
2022-10-15T18:19:26.794Z,21.50
2022-10-15T18:22:29.655Z,21.37
2022-10-15T18:25:31.304Z,17.10
2022-10-15T18:28:33.134Z,15.93
2022-10-15T18:31:35.126Z,16.63
2022-10-15T18:34:36.861Z,16.77
2022-10-15T18:37:38.762Z,16.60
2022-10-15T18:40:41.302Z,16.50
2022-10-15T18:43:43.183Z,16.67
2022-10-15T18:46:45.714Z,17.57
2022-10-15T18:49:47.697Z,15.40
2022-10-15T18:52:51.060Z,16.60
2022-10-15T18:55:52.780Z,16.50
2022-10-15T18:58:54.409Z,16.80
2022-10-15T19:01:56.070Z,16.10
2022-10-15T19:04:58.008Z,20.20
2022-10-15T19:08:01.047Z,24.33
2022-10-15T19:11:04.987Z,38.07
2022-10-15T19:14:09.259Z,18.90
2022-10-15T19:17:10.976Z,16.20
2022-10-15T19:20:12.772Z,22.03
2022-10-15T19:23:14.367Z,23.00
2022-10-15T19:26:16.340Z,19.00
2022-10-15T19:29:18.487Z,17.30
2022-10-15T19:32:21.683Z,17.60
2022-10-15T19:35:23.386Z,16.17
2022-10-15T19:38:27.907Z,15.40
2022-10-15T19:41:29.634Z,16.80
2022-10-15T19:44:31.271Z,16.97
2022-10-15T19:47:32.942Z,16.77
2022-10-15T19:50:36.688Z,18.03
2022-10-15T19:53:43.493Z,16.67
2022-10-15T19:56:45.238Z,17.00
2022-10-15T19:59:46.873Z,20.73
2022-10-15T20:02:48.419Z,19.00
2022-10-15T20:05:50.437Z,18.50
2022-10-15T20:08:52.111Z,19.37
2022-10-15T20:11:53.731Z,19.50
2022-10-15T20:14:55.397Z,17.70
2022-10-15T20:17:57.042Z,17.77
2022-10-15T20:20:58.675Z,18.83
2022-10-15T20:24:04.472Z,17.47
2022-10-15T20:27:06.577Z,15.90
2022-10-15T20:30:08.962Z,15.40
2022-10-15T20:33:11.898Z,15.90
2022-10-15T20:36:16.424Z,17.27
2022-10-15T20:39:21.127Z,17.27
2022-10-15T20:42:22.901Z,18.50
2022-10-15T20:45:26.685Z,19.30
2022-10-15T20:48:28.670Z,18.40
2022-10-15T20:51:30.670Z,18.10
2022-10-15T20:54:32.997Z,17.33
2022-10-15T20:57:34.608Z,16.70
2022-10-15T21:00:36.280Z,17.80
2022-10-15T21:03:37.872Z,16.40
2022-10-15T21:06:39.599Z,16.07
2022-10-15T21:09:41.148Z,16.80
2022-10-15T21:12:42.767Z,15.07
2022-10-15T21:15:44.349Z,14.27
2022-10-15T21:18:45.976Z,14.97
2022-10-15T21:21:47.577Z,13.57
2022-10-15T21:24:49.191Z,14.37
2022-10-15T21:27:50.882Z,14.10
2022-10-15T21:30:52.398Z,14.27
2022-10-15T21:33:57.771Z,13.97
2022-10-15T21:36:59.491Z,13.30
2022-10-15T21:40:01.115Z,14.03
2022-10-15T21:43:03.315Z,13.27
2022-10-15T21:46:06.034Z,13.43
2022-10-15T21:49:10.805Z,13.53
2022-10-15T21:52:12.448Z,14.13
2022-10-15T21:55:14.137Z,14.10
2022-10-15T21:58:15.679Z,12.97
2022-10-15T22:01:19.664Z,11.70
2022-10-15T22:04:21.371Z,12.03
2022-10-15T22:07:23.377Z,12.37
2022-10-15T22:10:25.146Z,12.73
2022-10-15T22:13:26.735Z,11.80
2022-10-15T22:16:28.585Z,12.97
2022-10-15T22:19:30.144Z,13.00
2022-10-15T22:22:31.736Z,12.67
2022-10-15T22:25:33.322Z,12.40
2022-10-15T22:28:35.052Z,11.40
2022-10-15T22:31:36.715Z,11.73
2022-10-15T22:34:38.325Z,12.70
2022-10-15T22:37:39.943Z,11.50
2022-10-15T22:40:41.521Z,11.27
2022-10-15T22:43:43.110Z,11.77
2022-10-15T22:46:46.267Z,11.60
2022-10-15T22:49:47.953Z,11.30
2022-10-15T22:52:49.668Z,11.73
2022-10-15T22:56:01.758Z,11.63
2022-10-15T22:59:03.815Z,11.37
2022-10-15T23:02:05.500Z,11.33
2022-10-15T23:05:07.216Z,12.37
2022-10-15T23:08:08.883Z,11.70
2022-10-15T23:11:18.205Z,11.37
2022-10-15T23:14:19.790Z,10.97
2022-10-15T23:17:21.402Z,11.33
2022-10-15T23:20:22.971Z,11.30
2022-10-15T23:23:24.657Z,11.03
2022-10-15T23:26:26.327Z,11.77
2022-10-15T23:29:27.941Z,11.43
2022-10-15T23:32:29.630Z,11.77
2022-10-15T23:35:31.231Z,11.60
2022-10-15T23:38:32.831Z,12.07
2022-10-15T23:41:34.469Z,11.90
2022-10-15T23:44:36.101Z,12.13
2022-10-15T23:47:37.779Z,12.00
2022-10-15T23:50:39.485Z,12.50
2022-10-15T23:53:41.415Z,12.27
2022-10-15T23:56:43.492Z,12.70
2022-10-15T23:59:45.051Z,12.00
